Time;durP1;ratioP1;P1;durP2;ratioP2;P2;SDS_P1;SDS_P2;PMS_P1;PMS_P2;Temp;Humidity;BMP_temperature;BMP_pressure;BME280_temperature;BME280_humidity;BME280_pressure;Samples;Min_cycle;Max_cycle;Signal;HPM_P1;HPM_P2
2020/12/10 00:01:05;;;;;;;;;;;13.80;65.10;;;;;;2082058;28;676;-48
2020/12/10 00:02:27;;;;;;;;;;;13.80;65.20;;;;;;2081749;28;606;-48
2020/12/10 00:03:47;;;;;;;;;;;13.80;65.10;;;;;;2081869;28;731;-49
2020/12/10 00:05:10;;;;;;;;;;;13.80;65.20;;;;;;2081875;28;1321;-51
2020/12/10 00:06:29;;;;;;;;;;;13.80;65.30;;;;;;2082442;28;621;-51
2020/12/10 00:07:48;;;;;;;;;;;13.70;65.20;;;;;;2081519;28;734;-48
2020/12/10 00:09:07;;;;;;;;;;;13.70;65.20;;;;;;2081854;28;745;-50
2020/12/10 00:10:26;;;;;;;;;;;13.70;65.20;;;;;;2081685;28;720;-50
2020/12/10 00:11:47;;;;;;;;;;;13.70;65.20;;;;;;2084904;28;1157;-49
2020/12/10 00:13:06;;;;;;;;;;;13.70;65.30;;;;;;2089821;28;703;-50
2020/12/10 00:14:26;;;;;;;;;;;13.70;65.30;;;;;;2089941;28;1445;-50
2020/12/10 00:15:45;;;;;;;;;;;13.70;65.30;;;;;;2089750;28;767;-48
2020/12/10 00:17:04;;;;;;;;;;;13.70;65.40;;;;;;2090392;28;637;-51
2020/12/10 00:18:23;;;;;;;;;;;13.70;65.50;;;;;;2090532;28;752;-49
2020/12/10 00:19:42;;;;;;;;;;;13.70;65.50;;;;;;2089736;28;699;-51
2020/12/10 00:21:02;;;;;;;;;;;13.60;66.10;;;;;;2089723;28;586;-48
2020/12/10 00:22:21;;;;;;;;;;;13.70;66.30;;;;;;2090240;28;781;-48
2020/12/10 00:23:41;;;;;;;;;;;13.70;65.50;;;;;;2089878;28;709;-50
2020/12/10 00:25:00;;;;;;;;;;;13.60;65.40;;;;;;2086109;28;1419;-48
2020/12/10 00:26:20;;;;;;;;;;;13.70;65.60;;;;;;2089919;28;716;-49
2020/12/10 00:27:39;;;;;;;;;;;13.60;65.60;;;;;;2089821;28;686;-48
2020/12/10 00:28:59;;;;;;;;;;;13.60;65.50;;;;;;2086522;28;721;-52
2020/12/10 00:30:18;;;;;;;;;;;13.60;65.60;;;;;;2090032;28;740;-48
2020/12/10 00:31:37;;;;;;;;;;;13.60;65.60;;;;;;2089511;28;706;-50
2020/12/10 00:32:56;;;;;;;;;;;13.60;65.70;;;;;;2090186;28;711;-49
2020/12/10 00:34:16;;;;;;;;;;;13.60;65.60;;;;;;2090357;28;708;-48
2020/12/10 00:35:35;;;;;;;;;;;13.60;65.70;;;;;;2089894;28;652;-48
2020/12/10 00:36:54;;;;;;;;;;;13.60;65.70;;;;;;2089386;28;733;-50
2020/12/10 00:38:13;;;;;;;;;;;13.60;66.40;;;;;;2086232;28;733;-49
2020/12/10 00:39:33;;;;;;;;;;;13.60;66.50;;;;;;2086546;28;737;-50
2020/12/10 00:40:52;;;;;;;;;;;13.60;66.50;;;;;;2088787;28;889;-48
2020/12/10 00:42:11;;;;;;;;;;;13.50;65.70;;;;;;2090251;28;740;-48
2020/12/10 00:43:30;;;;;;;;;;;13.50;65.70;;;;;;2081413;28;601;-51
2020/12/10 00:44:50;;;;;;;;;;;13.50;65.80;;;;;;2080797;28;1918;-49
2020/12/10 00:46:09;;;;;;;;;;;13.50;65.80;;;;;;2081970;28;669;-50
2020/12/10 00:47:28;;;;;;;;;;;13.50;65.80;;;;;;2081418;28;721;-49
2020/12/10 00:48:49;;;;;;;;;;;13.50;65.90;;;;;;2081576;28;752;-51
2020/12/10 00:50:09;;;;;;;;;;;13.50;65.80;;;;;;2081454;28;730;-49
2020/12/10 00:51:29;;;;;;;;;;;13.50;65.80;;;;;;2086181;28;1603;-49
2020/12/10 00:52:48;;;;;;;;;;;13.50;66.60;;;;;;2090052;28;762;-50
2020/12/10 00:54:07;;;;;;;;;;;13.50;66.70;;;;;;2089465;28;772;-50
2020/12/10 00:55:27;;;;;;;;;;;13.40;65.80;;;;;;2085784;28;714;-48
2020/12/10 00:56:46;;;;;;;;;;;13.40;65.90;;;;;;2089962;28;704;-51
2020/12/10 00:58:05;;;;;;;;;;;13.40;65.90;;;;;;2089348;28;641;-50
2020/12/10 00:59:25;;;;;;;;;;;13.40;65.90;;;;;;2086155;28;739;-48
2020/12/10 01:00:44;;;;;;;;;;;13.40;65.90;;;;;;2089971;28;741;-48
2020/12/10 01:02:03;;;;;;;;;;;13.40;66.00;;;;;;2090061;28;729;-51
2020/12/10 01:03:23;;;;;;;;;;;13.40;65.90;;;;;;2090183;28;679;-49
2020/12/10 01:04:42;;;;;;;;;;;13.40;65.90;;;;;;2089776;28;1965;-51
2020/12/10 01:06:01;;;;;;;;;;;13.40;66.00;;;;;;2089398;28;804;-49
2020/12/10 01:07:20;;;;;;;;;;;13.40;66.00;;;;;;2089847;28;740;-49
2020/12/10 01:08:39;;;;;;;;;;;13.40;66.00;;;;;;2090176;28;745;-49
2020/12/10 01:09:59;;;;;;;;;;;13.30;66.70;;;;;;2089437;28;730;-51
2020/12/10 01:11:18;;;;;;;;;;;13.40;66.70;;;;;;2085208;28;1061;-50
2020/12/10 01:12:37;;;;;;;;;;;13.30;66.80;;;;;;2086109;28;1017;-48
2020/12/10 01:13:56;;;;;;;;;;;13.30;66.00;;;;;;2081172;28;749;-49
2020/12/10 01:15:15;;;;;;;;;;;13.40;66.10;;;;;;2077606;28;1508;-50
2020/12/10 01:16:35;;;;;;;;;;;13.30;66.10;;;;;;2081545;28;727;-50
2020/12/10 01:17:54;;;;;;;;;;;13.30;66.10;;;;;;2081124;28;764;-52
2020/12/10 01:19:13;;;;;;;;;;;13.30;66.10;;;;;;2081556;28;751;-49
2020/12/10 01:20:32;;;;;;;;;;;13.30;66.10;;;;;;2084343;28;1057;-50
2020/12/10 01:21:52;;;;;;;;;;;13.30;66.10;;;;;;2081870;28;714;-50
2020/12/10 01:23:11;;;;;;;;;;;13.30;66.20;;;;;;2081705;28;661;-50
2020/12/10 01:24:30;;;;;;;;;;;13.30;66.20;;;;;;2081494;28;1907;-48
2020/12/10 01:25:49;;;;;;;;;;;13.30;66.20;;;;;;2089551;28;526;-50
2020/12/10 01:27:08;;;;;;;;;;;13.30;66.30;;;;;;2084871;28;965;-50
2020/12/10 01:28:27;;;;;;;;;;;13.30;66.20;;;;;;2072666;28;727;-49
2020/12/10 01:29:47;;;;;;;;;;;13.30;67.10;;;;;;2078205;28;617;-48
2020/12/10 01:31:06;;;;;;;;;;;13.20;66.90;;;;;;2081106;28;731;-49
2020/12/10 01:32:25;;;;;;;;;;;13.20;66.30;;;;;;2081530;28;778;-48
2020/12/10 01:33:44;;;;;;;;;;;13.20;66.30;;;;;;2082042;28;598;-52
2020/12/10 01:35:04;;;;;;;;;;;13.20;66.20;;;;;;2080403;28;1465;-49
2020/12/10 01:36:24;;;;;;;;;;;13.20;66.20;;;;;;2086068;28;602;-48
2020/12/10 01:37:43;;;;;;;;;;;13.20;66.30;;;;;;2081190;28;711;-49
2020/12/10 01:39:03;;;;;;;;;;;13.20;66.30;;;;;;2069669;28;732;-49
2020/12/10 01:40:22;;;;;;;;;;;13.20;66.30;;;;;;2070537;28;729;-49
2020/12/10 01:41:42;;;;;;;;;;;13.20;66.30;;;;;;2086603;28;897;-49
2020/12/10 01:43:01;;;;;;;;;;;13.20;66.40;;;;;;2089124;28;1104;-48
2020/12/10 01:44:20;;;;;;;;;;;13.20;66.40;;;;;;2081317;28;1977;-51
2020/12/10 01:45:39;;;;;;;;;;;13.20;66.40;;;;;;2082425;28;724;-48
2020/12/10 01:46:58;;;;;;;;;;;13.20;66.40;;;;;;2081552;28;745;-48
2020/12/10 01:48:17;;;;;;;;;;;13.20;66.40;;;;;;2082427;28;688;-48
2020/12/10 01:49:37;;;;;;;;;;;13.10;66.40;;;;;;2080081;28;740;-50
2020/12/10 01:50:57;;;;;;;;;;;13.10;66.40;;;;;;2080459;28;745;-51
2020/12/10 01:52:16;;;;;;;;;;;13.10;66.40;;;;;;2082175;28;703;-49
2020/12/10 01:53:35;;;;;;;;;;;13.10;66.40;;;;;;2082381;28;701;-48
2020/12/10 01:54:54;;;;;;;;;;;13.10;66.40;;;;;;2081569;28;1373;-49
2020/12/10 01:56:14;;;;;;;;;;;13.10;66.50;;;;;;2083067;28;762;-48
2020/12/10 01:57:34;;;;;;;;;;;13.10;66.40;;;;;;2083153;28;709;-49
2020/12/10 01:58:54;;;;;;;;;;;13.10;66.50;;;;;;2083312;28;633;-50
2020/12/10 02:00:12;;;;;;;;;;;13.10;66.50;;;;;;2074318;28;769;-49
2020/12/10 02:01:32;;;;;;;;;;;13.10;66.50;;;;;;2076205;28;714;-47
2020/12/10 02:02:54;;;;;;;;;;;13.10;67.30;;;;;;2079172;28;729;-48
2020/12/10 02:04:33;;;;;;;;;;;13.10;67.20;;;;;;2079683;28;1906;-48
2020/12/10 02:05:52;;;;;;;;;;;13.00;66.50;;;;;;2083152;28;686;-47
2020/12/10 02:07:11;;;;;;;;;;;13.00;66.60;;;;;;2083248;28;629;-47
2020/12/10 02:08:30;;;;;;;;;;;13.10;66.70;;;;;;2082340;28;786;-47
2020/12/10 02:09:49;;;;;;;;;;;13.00;66.70;;;;;;2083090;28;713;-47
2020/12/10 02:11:11;;;;;;;;;;;13.00;66.60;;;;;;2089769;28;1028;-48
2020/12/10 02:12:31;;;;;;;;;;;13.00;66.70;;;;;;2080539;28;979;-47
2020/12/10 02:13:50;;;;;;;;;;;13.00;66.60;;;;;;2091335;28;657;-48
2020/12/10 02:15:09;;;;;;;;;;;13.00;66.60;;;;;;2089833;28;1954;-48
2020/12/10 02:16:29;;;;;;;;;;;13.00;66.70;;;;;;2091008;28;750;-48
2020/12/10 02:17:48;;;;;;;;;;;13.00;66.60;;;;;;2091311;28;706;-48
2020/12/10 02:19:07;;;;;;;;;;;13.00;66.80;;;;;;2091261;28;717;-48
2020/12/10 02:20:27;;;;;;;;;;;13.00;66.60;;;;;;2091365;28;763;-48
2020/12/10 02:21:46;;;;;;;;;;;13.00;66.70;;;;;;2090863;28;739;-48
2020/12/10 02:23:05;;;;;;;;;;;13.00;66.80;;;;;;2087381;28;764;-48
2020/12/10 02:24:25;;;;;;;;;;;13.00;66.80;;;;;;2087076;28;1969;-49
2020/12/10 02:25:44;;;;;;;;;;;12.90;66.70;;;;;;2090550;28;766;-48
2020/12/10 02:27:03;;;;;;;;;;;13.00;66.80;;;;;;2090842;28;755;-49
2020/12/10 02:28:22;;;;;;;;;;;12.90;67.50;;;;;;2091012;28;745;-47
2020/12/10 02:29:41;;;;;;;;;;;12.90;67.50;;;;;;2090218;28;732;-48
2020/12/10 02:31:00;;;;;;;;;;;13.00;66.90;;;;;;2090162;28;771;-47
2020/12/10 02:32:19;;;;;;;;;;;12.90;66.80;;;;;;2090946;28;787;-47
2020/12/10 02:33:39;;;;;;;;;;;12.90;66.80;;;;;;2090991;28;722;-47
2020/12/10 02:34:58;;;;;;;;;;;12.90;66.80;;;;;;2090124;28;1371;-48
2020/12/10 02:36:17;;;;;;;;;;;12.90;66.90;;;;;;2090939;28;704;-47
2020/12/10 02:37:37;;;;;;;;;;;12.90;66.90;;;;;;2090155;28;714;-48
2020/12/10 02:38:56;;;;;;;;;;;12.90;66.90;;;;;;2090568;28;1103;-48
2020/12/10 02:40:15;;;;;;;;;;;12.90;67.00;;;;;;2090922;28;730;-49
2020/12/10 02:41:34;;;;;;;;;;;12.90;66.90;;;;;;2083251;28;878;-48
2020/12/10 02:42:55;;;;;;;;;;;12.80;66.90;;;;;;2090484;28;1059;-48
2020/12/10 02:44:14;;;;;;;;;;;12.90;67.00;;;;;;2090234;28;1973;-48
2020/12/10 02:45:34;;;;;;;;;;;12.90;67.70;;;;;;2089702;28;732;-47
2020/12/10 02:46:53;;;;;;;;;;;12.80;67.60;;;;;;2090700;28;1350;-47
2020/12/10 02:48:12;;;;;;;;;;;12.90;67.00;;;;;;2090635;28;718;-48
2020/12/10 02:49:31;;;;;;;;;;;12.80;66.80;;;;;;2090658;28;733;-47
2020/12/10 02:50:51;;;;;;;;;;;12.80;66.90;;;;;;2090792;28;700;-48
2020/12/10 02:52:10;;;;;;;;;;;12.80;66.90;;;;;;2090002;28;730;-47
2020/12/10 02:53:29;;;;;;;;;;;12.80;66.90;;;;;;2090439;28;755;-47
2020/12/10 02:54:48;;;;;;;;;;;12.80;67.00;;;;;;2089128;28;1359;-48
2020/12/10 02:56:14;;;;;;;;;;;12.80;67.00;;;;;;2086839;28;780;-48
2020/12/10 02:57:33;;;;;;;;;;;12.80;67.00;;;;;;2090575;28;714;-47
2020/12/10 02:58:52;;;;;;;;;;;12.80;67.70;;;;;;2090709;28;759;-47
2020/12/10 03:00:11;;;;;;;;;;;12.80;67.00;;;;;;2089965;28;778;-47
2020/12/10 03:01:35;;;;;;;;;;;12.80;67.00;;;;;;2090198;28;704;-48
2020/12/10 03:02:54;;;;;;;;;;;12.80;67.10;;;;;;2087439;28;737;-48
2020/12/10 03:04:13;;;;;;;;;;;12.80;67.10;;;;;;2086796;28;1985;-48
2020/12/10 03:05:33;;;;;;;;;;;12.70;66.90;;;;;;2086008;28;728;-46
2020/12/10 03:06:52;;;;;;;;;;;12.70;67.10;;;;;;2090467;28;717;-48
2020/12/10 03:08:11;;;;;;;;;;;12.70;67.10;;;;;;2090146;28;813;-48
2020/12/10 03:09:30;;;;;;;;;;;12.70;67.10;;;;;;2086687;28;753;-47
2020/12/10 03:10:50;;;;;;;;;;;12.70;67.90;;;;;;2088764;28;945;-48
2020/12/10 03:12:10;;;;;;;;;;;12.70;67.80;;;;;;2089994;28;1057;-48
2020/12/10 03:13:29;;;;;;;;;;;12.70;67.20;;;;;;2082200;28;741;-47
2020/12/10 03:14:48;;;;;;;;;;;12.70;67.20;;;;;;2081320;28;1329;-47
2020/12/10 03:16:08;;;;;;;;;;;12.70;67.20;;;;;;2082269;28;800;-48
2020/12/10 03:17:27;;;;;;;;;;;12.70;67.30;;;;;;2082250;28;739;-48
2020/12/10 03:18:46;;;;;;;;;;;12.70;67.30;;;;;;2081734;28;738;-52
2020/12/10 03:20:05;;;;;;;;;;;12.70;67.50;;;;;;2085040;28;1124;-48
2020/12/10 03:21:24;;;;;;;;;;;12.70;67.50;;;;;;2086474;28;1030;-48
2020/12/10 03:22:43;;;;;;;;;;;12.70;67.50;;;;;;2084174;28;1334;-49
2020/12/10 03:24:02;;;;;;;;;;;12.60;67.30;;;;;;2083193;28;1153;-47
2020/12/10 03:25:24;;;;;;;;;;;12.60;67.30;;;;;;2079680;28;1527;-48
2020/12/10 03:26:43;;;;;;;;;;;12.70;67.50;;;;;;2083849;28;1048;-47
2020/12/10 03:28:02;;;;;;;;;;;12.60;68.10;;;;;;2084130;28;1100;-47
2020/12/10 03:29:21;;;;;;;;;;;12.60;67.30;;;;;;2083817;28;1200;-47
2020/12/10 03:30:40;;;;;;;;;;;12.60;67.40;;;;;;2083344;28;1276;-47
2020/12/10 03:32:00;;;;;;;;;;;12.60;67.50;;;;;;2085018;28;1204;-48
2020/12/10 03:33:19;;;;;;;;;;;12.60;67.60;;;;;;2088410;28;1174;-47
2020/12/10 03:34:39;;;;;;;;;;;12.60;67.50;;;;;;2087401;28;1381;-47
2020/12/10 03:35:58;;;;;;;;;;;12.60;67.50;;;;;;2084736;28;1319;-48
2020/12/10 03:37:17;;;;;;;;;;;12.60;67.70;;;;;;2084902;28;1435;-47
2020/12/10 03:38:36;;;;;;;;;;;12.60;67.70;;;;;;2084592;28;1879;-48
2020/12/10 03:39:56;;;;;;;;;;;12.50;67.70;;;;;;2084128;28;1422;-46
2020/12/10 03:41:15;;;;;;;;;;;12.60;67.80;;;;;;2080444;28;1281;-48
2020/12/10 03:42:34;;;;;;;;;;;12.60;67.90;;;;;;2080522;28;1045;-47
2020/12/10 03:43:53;;;;;;;;;;;12.60;68.80;;;;;;2084508;28;1006;-47
2020/12/10 03:45:12;;;;;;;;;;;12.50;68.60;;;;;;2075782;28;1696;-48
2020/12/10 03:46:32;;;;;;;;;;;12.50;67.90;;;;;;2081256;28;1107;-48
2020/12/10 03:47:51;;;;;;;;;;;12.50;68.10;;;;;;2082064;28;1377;-48
2020/12/10 03:49:10;;;;;;;;;;;12.50;68.30;;;;;;2078029;28;1429;-48
2020/12/10 03:50:29;;;;;;;;;;;12.50;68.30;;;;;;2084278;28;1407;-47
2020/12/10 03:51:49;;;;;;;;;;;12.50;68.40;;;;;;2086771;28;1232;-49
2020/12/10 03:53:08;;;;;;;;;;;12.50;68.50;;;;;;2087036;28;1265;-47
2020/12/10 03:54:27;;;;;;;;;;;12.50;68.60;;;;;;2089523;28;1156;-48
2020/12/10 03:55:47;;;;;;;;;;;12.50;68.60;;;;;;2084854;28;1458;-49
2020/12/10 03:57:06;;;;;;;;;;;12.40;68.70;;;;;;2084206;28;1219;-48
2020/12/10 03:58:25;;;;;;;;;;;12.40;68.70;;;;;;2089775;28;1225;-48
2020/12/10 03:59:44;;;;;;;;;;;12.50;68.80;;;;;;2086101;28;1335;-48
2020/12/10 04:01:03;;;;;;;;;;;12.40;68.80;;;;;;2082461;28;1181;-48
2020/12/10 04:02:22;;;;;;;;;;;12.40;69.60;;;;;;2085255;28;1261;-50
2020/12/10 04:03:42;;;;;;;;;;;12.40;68.80;;;;;;2083189;28;1235;-48
2020/12/10 04:05:01;;;;;;;;;;;12.40;69.00;;;;;;2078740;28;1938;-46
2020/12/10 04:06:20;;;;;;;;;;;12.40;69.80;;;;;;2081834;28;1171;-49
2020/12/10 04:07:39;;;;;;;;;;;12.40;69.00;;;;;;2085146;28;1278;-48
2020/12/10 04:08:58;;;;;;;;;;;12.40;69.10;;;;;;2083572;28;1082;-48
2020/12/10 04:10:18;;;;;;;;;;;12.40;69.20;;;;;;2083787;28;1505;-48
2020/12/10 04:11:38;;;;;;;;;;;12.40;69.20;;;;;;2081649;28;1109;-48
2020/12/10 04:12:57;;;;;;;;;;;12.40;69.20;;;;;;2081699;28;1240;-48
2020/12/10 04:14:16;;;;;;;;;;;12.40;69.10;;;;;;2087558;28;1151;-47
2020/12/10 04:15:35;;;;;;;;;;;12.40;69.10;;;;;;2086258;28;1057;-48
2020/12/10 04:16:55;;;;;;;;;;;12.30;69.10;;;;;;2087440;28;1152;-49
2020/12/10 04:18:14;;;;;;;;;;;12.30;69.20;;;;;;2083866;28;1141;-47
2020/12/10 04:19:33;;;;;;;;;;;12.30;69.20;;;;;;2087922;28;1105;-48
2020/12/10 04:20:52;;;;;;;;;;;12.30;70.10;;;;;;2086480;28;1378;-48
2020/12/10 04:22:11;;;;;;;;;;;12.30;69.80;;;;;;2089532;28;1459;-47
2020/12/10 04:23:30;;;;;;;;;;;12.30;70.00;;;;;;2087908;28;1231;-48
2020/12/10 04:24:50;;;;;;;;;;;12.30;69.30;;;;;;2085581;28;1898;-48
2020/12/10 04:26:09;;;;;;;;;;;12.30;69.30;;;;;;2089003;28;1226;-48
2020/12/10 04:27:28;;;;;;;;;;;12.30;69.10;;;;;;2084288;28;1119;-47
2020/12/10 04:28:48;;;;;;;;;;;12.30;69.40;;;;;;2085214;28;1173;-47
2020/12/10 04:30:07;;;;;;;;;;;12.20;69.20;;;;;;2084735;28;1324;-47
2020/12/10 04:31:26;;;;;;;;;;;12.20;69.10;;;;;;2083767;28;1193;-48
2020/12/10 04:32:45;;;;;;;;;;;12.20;69.00;;;;;;2084223;28;1151;-47
2020/12/10 04:34:04;;;;;;;;;;;12.20;69.20;;;;;;2088401;28;1281;-48
2020/12/10 04:35:23;;;;;;;;;;;12.20;69.20;;;;;;2086907;28;1366;-49
2020/12/10 04:36:47;;;;;;;;;;;12.20;69.30;;;;;;2085051;28;1181;-48
2020/12/10 04:38:06;;;;;;;;;;;12.20;69.30;;;;;;2089022;28;1461;-47
2020/12/10 04:39:25;;;;;;;;;;;12.20;69.30;;;;;;2088381;28;1241;-48
2020/12/10 04:40:45;;;;;;;;;;;12.20;69.20;;;;;;2084930;28;1251;-48
2020/12/10 04:42:08;;;;;;;;;;;12.20;69.40;;;;;;2088263;28;1284;-48
2020/12/10 04:43:28;;;;;;;;;;;12.20;69.50;;;;;;2085338;28;1194;-48
2020/12/10 04:44:47;;;;;;;;;;;12.20;69.20;;;;;;2083435;28;1977;-48
2020/12/10 04:46:06;;;;;;;;;;;12.20;69.30;;;;;;2086628;28;745;-50
2020/12/10 04:47:26;;;;;;;;;;;12.10;69.20;;;;;;2088904;28;870;-49
2020/12/10 04:48:45;;;;;;;;;;;12.10;69.20;;;;;;2086258;28;708;-49
2020/12/10 04:50:14;;;;;;;;;;;12.10;69.40;;;;;;2085795;28;741;-50
2020/12/10 04:51:34;;;;;;;;;;;12.20;69.40;;;;;;2088433;28;721;-47
2020/12/10 04:52:53;;;;;;;;;;;12.10;69.40;;;;;;2088980;28;728;-47
2020/12/10 04:54:12;;;;;;;;;;;12.10;69.50;;;;;;2084037;28;1604;-47
2020/12/10 04:55:31;;;;;;;;;;;12.10;69.30;;;;;;2083135;28;2061;-47
2020/12/10 04:56:50;;;;;;;;;;;12.10;69.50;;;;;;2081881;28;1468;-47
2020/12/10 04:58:10;;;;;;;;;;;12.10;69.60;;;;;;2085711;28;1186;-48
2020/12/10 04:59:29;;;;;;;;;;;12.10;69.40;;;;;;2084211;28;729;-48
2020/12/10 05:01:02;;;;;;;;;;;12.10;69.50;;;;;;2081243;28;716;-48
2020/12/10 05:02:21;;;;;;;;;;;12.10;69.50;;;;;;2081289;28;770;-47
2020/12/10 05:03:42;;;;;;;;;;;12.10;69.00;;;;;;2080916;28;749;-48
2020/12/10 05:05:19;;;;;;;;;;;12.10;69.10;;;;;;2075897;28;1961;-48
2020/12/10 05:06:48;;;;;;;;;;;12.10;69.00;;;;;;2081513;28;702;-48
2020/12/10 05:08:07;;;;;;;;;;;12.10;69.00;;;;;;2080807;28;793;-48
2020/12/10 05:09:27;;;;;;;;;;;12.10;68.80;;;;;;2077684;28;838;-47
2020/12/10 05:10:47;;;;;;;;;;;12.10;68.70;;;;;;2080881;28;1091;-47
2020/12/10 05:12:18;;;;;;;;;;;12.20;68.60;;;;;;2084424;28;1041;-48
2020/12/10 05:13:38;;;;;;;;;;;12.30;68.40;;;;;;2081122;28;714;-48
2020/12/10 05:14:57;;;;;;;;;;;12.30;68.00;;;;;;2079931;28;1385;-47
2020/12/10 05:16:19;;;;;;;;;;;12.30;67.60;;;;;;2077681;28;1037;-47
2020/12/10 05:17:38;;;;;;;;;;;12.40;67.30;;;;;;2077918;28;740;-47
2020/12/10 05:19:15;;;;;;;;;;;12.40;67.70;;;;;;2081156;28;752;-49
2020/12/10 05:20:45;;;;;;;;;;;12.50;66.60;;;;;;2081504;28;713;-48
2020/12/10 05:22:05;;;;;;;;;;;12.50;66.10;;;;;;2080694;28;742;-48
2020/12/10 05:23:36;;;;;;;;;;;12.60;66.40;;;;;;2069588;28;1037;-48
2020/12/10 05:24:58;;;;;;;;;;;12.70;65.40;;;;;;2076830;28;1919;-48
2020/12/10 05:26:17;;;;;;;;;;;12.70;65.10;;;;;;2077954;28;825;-47
2020/12/10 05:27:36;;;;;;;;;;;12.70;64.80;;;;;;2077548;28;824;-49
2020/12/10 05:28:56;;;;;;;;;;;12.70;64.60;;;;;;2083810;28;1467;-48
2020/12/10 05:30:15;;;;;;;;;;;12.70;64.50;;;;;;2080852;28;755;-48
2020/12/10 05:31:35;;;;;;;;;;;12.70;64.40;;;;;;2081401;28;683;-47
2020/12/10 05:32:54;;;;;;;;;;;12.70;64.40;;;;;;2080662;28;717;-47
2020/12/10 05:34:16;;;;;;;;;;;12.70;64.30;;;;;;2081016;28;725;-48
2020/12/10 05:35:36;;;;;;;;;;;12.70;64.30;;;;;;2071784;28;706;-48
2020/12/10 05:36:55;;;;;;;;;;;12.70;65.20;;;;;;2077826;28;725;-48
2020/12/10 05:38:14;;;;;;;;;;;12.70;65.10;;;;;;2081096;28;697;-48
2020/12/10 05:39:33;;;;;;;;;;;12.70;65.10;;;;;;2081416;28;700;-48
2020/12/10 05:40:52;;;;;;;;;;;12.70;64.30;;;;;;2077309;28;952;-47
2020/12/10 05:42:12;;;;;;;;;;;12.70;64.20;;;;;;2080898;28;1005;-47
2020/12/10 05:43:31;;;;;;;;;;;12.70;64.10;;;;;;2081452;28;733;-48
2020/12/10 05:44:50;;;;;;;;;;;12.80;64.10;;;;;;2087963;28;1902;-48
2020/12/10 05:46:28;;;;;;;;;;;12.80;63.90;;;;;;2084269;28;709;-48
2020/12/10 05:47:47;;;;;;;;;;;12.80;63.70;;;;;;2081326;28;691;-49
2020/12/10 05:49:06;;;;;;;;;;;12.90;63.60;;;;;;2081368;28;713;-48
2020/12/10 05:50:26;;;;;;;;;;;12.90;63.40;;;;;;2089016;28;722;-48
2020/12/10 05:51:48;;;;;;;;;;;12.90;63.90;;;;;;2088990;28;699;-48
2020/12/10 05:53:08;;;;;;;;;;;13.00;63.70;;;;;;2080645;28;805;-47
2020/12/10 05:54:27;;;;;;;;;;;13.00;62.80;;;;;;2081006;28;948;-48
2020/12/10 05:55:48;;;;;;;;;;;13.00;62.60;;;;;;2080639;28;796;-48
2020/12/10 05:57:08;;;;;;;;;;;13.10;62.50;;;;;;2085806;28;733;-48
2020/12/10 05:58:27;;;;;;;;;;;13.10;62.20;;;;;;2080447;28;735;-47
2020/12/10 05:59:46;;;;;;;;;;;13.20;62.10;;;;;;2077436;28;761;-48
2020/12/10 06:01:05;;;;;;;;;;;13.20;61.80;;;;;;2077532;28;817;-47
2020/12/10 06:02:25;;;;;;;;;;;13.20;62.40;;;;;;2077533;28;800;-47
2020/12/10 06:03:46;;;;;;;;;;;13.30;61.60;;;;;;2072317;28;777;-49
2020/12/10 06:05:06;;;;;;;;;;;13.30;61.30;;;;;;2074195;28;1969;-47
2020/12/10 06:06:25;;;;;;;;;;;13.30;61.10;;;;;;2077366;28;740;-47
2020/12/10 06:08:03;;;;;;;;;;;13.40;61.00;;;;;;2080819;28;771;-49
2020/12/10 06:09:22;;;;;;;;;;;13.40;60.80;;;;;;2081081;28;731;-50
2020/12/10 06:10:42;;;;;;;;;;;13.40;60.60;;;;;;2084150;28;1008;-48
2020/12/10 06:12:01;;;;;;;;;;;13.50;60.50;;;;;;2089035;28;969;-48
2020/12/10 06:13:23;;;;;;;;;;;13.50;60.20;;;;;;2089449;28;989;-48
2020/12/10 06:14:51;;;;;;;;;;;13.50;60.70;;;;;;2088416;28;1368;-48
2020/12/10 06:16:14;;;;;;;;;;;13.60;59.90;;;;;;2078882;28;709;-50
2020/12/10 06:17:33;;;;;;;;;;;13.60;59.70;;;;;;2086441;28;720;-47
2020/12/10 06:18:53;;;;;;;;;;;13.70;59.60;;;;;;2089553;28;736;-48
2020/12/10 06:20:30;;;;;;;;;;;13.70;59.50;;;;;;2080480;28;788;-47
2020/12/10 06:21:49;;;;;;;;;;;13.80;59.40;;;;;;2088600;28;730;-48
2020/12/10 06:23:31;;;;;;;;;;;13.80;59.30;;;;;;2089558;28;708;-47
2020/12/10 06:24:50;;;;;;;;;;;13.90;59.20;;;;;;2088431;28;1898;-48
2020/12/10 06:26:24;;;;;;;;;;;13.90;59.10;;;;;;2088399;28;784;-47
2020/12/10 06:27:43;;;;;;;;;;;13.90;58.90;;;;;;2089330;28;725;-48
2020/12/10 06:29:21;;;;;;;;;;;14.00;58.80;;;;;;2086134;28;745;-48
2020/12/10 06:30:41;;;;;;;;;;;14.00;58.70;;;;;;2084560;28;756;-48
2020/12/10 06:32:06;;;;;;;;;;;14.10;58.60;;;;;;2086319;28;741;-48
2020/12/10 06:33:34;;;;;;;;;;;14.10;58.40;;;;;;2085363;28;736;-48
2020/12/10 06:34:55;;;;;;;;;;;14.10;58.30;;;;;;2085757;28;1440;-47
2020/12/10 06:36:21;;;;;;;;;;;14.20;58.20;;;;;;2085183;28;737;-47
2020/12/10 06:37:46;;;;;;;;;;;14.20;58.50;;;;;;2083210;28;757;-50
2020/12/10 06:39:05;;;;;;;;;;;14.30;58.00;;;;;;2082714;28;722;-48
2020/12/10 06:40:27;;;;;;;;;;;14.30;57.90;;;;;;2083460;28;935;-48
2020/12/10 06:41:58;;;;;;;;;;;14.40;57.80;;;;;;2087545;28;1000;-47
2020/12/10 06:43:19;;;;;;;;;;;14.40;57.70;;;;;;2090587;28;1024;-48
2020/12/10 06:44:38;;;;;;;;;;;14.50;58.20;;;;;;2090054;28;1975;-48
2020/12/10 06:45:57;;;;;;;;;;;14.50;57.50;;;;;;2090346;28;723;-49
2020/12/10 06:47:16;;;;;;;;;;;14.50;57.40;;;;;;2090125;28;786;-48
2020/12/10 06:48:39;;;;;;;;;;;14.50;57.20;;;;;;2086785;28;743;-48
2020/12/10 06:49:58;;;;;;;;;;;14.60;57.20;;;;;;2087429;28;724;-48
2020/12/10 06:51:18;;;;;;;;;;;14.60;57.10;;;;;;2086918;28;745;-48
2020/12/10 06:52:37;;;;;;;;;;;14.70;57.00;;;;;;2090570;28;793;-48
2020/12/10 06:53:59;;;;;;;;;;;14.70;56.90;;;;;;2090613;28;876;-48
2020/12/10 06:55:18;;;;;;;;;;;14.80;56.80;;;;;;2089971;28;1870;-48
2020/12/10 06:57:03;;;;;;;;;;;14.80;56.70;;;;;;2090759;28;713;-48
2020/12/10 06:58:50;;;;;;;;;;;14.80;56.70;;;;;;2090042;28;801;-48
2020/12/10 07:00:09;;;;;;;;;;;14.90;57.10;;;;;;2090489;28;708;-48
2020/12/10 07:01:28;;;;;;;;;;;14.90;56.50;;;;;;2090345;28;1274;-48
2020/12/10 07:03:06;;;;;;;;;;;14.90;56.40;;;;;;2090058;28;1466;-48
2020/12/10 07:05:44;;;;;;;;;;;15.00;56.40;;;;;;2089501;28;778;-47
2020/12/10 07:07:13;;;;;;;;;;;15.00;56.40;;;;;;2088600;28;720;-48
2020/12/10 07:08:32;;;;;;;;;;;15.00;56.30;;;;;;2085183;28;745;-47
2020/12/10 07:09:52;;;;;;;;;;;15.00;56.40;;;;;;2077730;28;785;-48
2020/12/10 07:11:18;;;;;;;;;;;15.00;57.00;;;;;;2088373;28;976;-48
2020/12/10 07:12:42;;;;;;;;;;;15.00;56.40;;;;;;2080144;28;969;-48
2020/12/10 07:14:02;;;;;;;;;;;15.00;56.50;;;;;;2076349;28;759;-47
2020/12/10 07:15:26;;;;;;;;;;;15.00;57.00;;;;;;2083208;28;1413;-47
2020/12/10 07:16:45;;;;;;;;;;;15.00;56.50;;;;;;2087132;28;711;-48
2020/12/10 07:18:05;;;;;;;;;;;15.00;56.50;;;;;;2087480;28;796;-47
2020/12/10 07:19:24;;;;;;;;;;;15.00;56.60;;;;;;2080242;28;750;-47
2020/12/10 07:20:44;;;;;;;;;;;15.00;56.60;;;;;;2086893;28;797;-48
2020/12/10 07:22:03;;;;;;;;;;;14.90;56.60;;;;;;2087561;28;742;-49
2020/12/10 07:23:22;;;;;;;;;;;14.90;56.70;;;;;;2086428;28;749;-49
2020/12/10 07:24:41;;;;;;;;;;;14.90;56.70;;;;;;2088245;28;1906;-48
2020/12/10 07:26:00;;;;;;;;;;;14.90;57.40;;;;;;2083933;28;1368;-48
2020/12/10 07:27:19;;;;;;;;;;;14.90;57.00;;;;;;2076135;28;777;-48
2020/12/10 07:28:38;;;;;;;;;;;14.80;57.50;;;;;;2083218;28;765;-49
2020/12/10 07:29:57;;;;;;;;;;;14.80;57.10;;;;;;2086255;28;779;-47
2020/12/10 07:31:17;;;;;;;;;;;14.80;57.20;;;;;;2087013;28;867;-48
2020/12/10 07:32:37;;;;;;;;;;;14.80;57.30;;;;;;2087785;28;722;-49
2020/12/10 07:33:56;;;;;;;;;;;14.70;57.40;;;;;;2080352;28;771;-48
2020/12/10 07:35:15;;;;;;;;;;;14.70;57.50;;;;;;2082606;28;1358;-48
2020/12/10 07:36:35;;;;;;;;;;;14.70;57.60;;;;;;2086287;28;743;-48
2020/12/10 07:37:54;;;;;;;;;;;14.70;57.80;;;;;;2086662;28;689;-48
2020/12/10 07:39:13;;;;;;;;;;;14.60;57.80;;;;;;2094778;28;758;-47
2020/12/10 07:40:32;;;;;;;;;;;14.60;57.90;;;;;;2088268;28;906;-49
2020/12/10 07:41:51;;;;;;;;;;;14.60;58.00;;;;;;2090320;28;1059;-48
2020/12/10 07:43:11;;;;;;;;;;;14.60;58.60;;;;;;2089413;28;1017;-48
2020/12/10 07:44:30;;;;;;;;;;;14.60;58.10;;;;;;2089819;28;2000;-47
2020/12/10 07:45:50;;;;;;;;;;;14.60;58.10;;;;;;2090256;28;731;-48
2020/12/10 07:47:10;;;;;;;;;;;14.70;58.20;;;;;;2090325;28;742;-47
2020/12/10 07:48:28;;;;;;;;;;;14.70;58.20;;;;;;2089741;28;720;-47
2020/12/10 07:49:48;;;;;;;;;;;14.70;58.10;;;;;;2086663;28;1048;-47
2020/12/10 07:51:07;;;;;;;;;;;14.70;58.00;;;;;;2089788;28;839;-48
2020/12/10 07:52:26;;;;;;;;;;;14.70;57.90;;;;;;2089673;28;774;-47
2020/12/10 07:53:46;;;;;;;;;;;14.70;57.90;;;;;;2086464;28;939;-48
2020/12/10 07:55:05;;;;;;;;;;;14.80;57.90;;;;;;2085802;28;1377;-48
2020/12/10 07:56:24;;;;;;;;;;;14.80;57.90;;;;;;2086343;28;760;-48
2020/12/10 07:57:50;;;;;;;;;;;14.80;57.90;;;;;;2086444;28;842;-47
2020/12/10 07:59:10;;;;;;;;;;;14.70;57.80;;;;;;2087186;28;766;-49
2020/12/10 08:00:30;;;;;;;;;;;14.70;57.90;;;;;;2083198;28;1156;-47
2020/12/10 08:01:53;;;;;;;;;;;14.70;57.90;;;;;;2071757;28;791;-47